Time,TemperatureF,DewpointF,PressureIn,WindDirection,WindDirectionDegrees,WindSpeedMPH,WindSpeedGustMPH,Humidity,HourlyPrecipIn,Conditions,Clouds,dailyrainin,SoftwareType,DateUTC
2013-08-08 00:08:00,77.1,76.0,29.95,ESE,110,2.0,5.0,95,0.00,,,0.21,weatherlink.com 1.10,2013-08-08 04:08:00,
2013-08-08 00:23:00,77.2,76.0,29.95,East,86,1.0,7.0,95,0.00,,,0.21,weatherlink.com 1.10,2013-08-08 04:23:00,
2013-08-08 00:38:00,77.2,76.0,29.94,East,95,1.0,3.0,95,0.00,,,0.21,weatherlink.com 1.10,2013-08-08 04:38:00,
2013-08-08 00:53:00,77.2,76.0,29.94,NE,47,2.0,7.0,95,0.00,,,0.00,weatherlink.com 1.10,2013-08-08 04:53:00,
2013-08-08 01:08:00,77.1,76.0,29.94,East,84,0.0,3.0,95,0.00,,,0.00,weatherlink.com 1.10,2013-08-08 05:08:00,
2013-08-08 01:23:00,77.0,76.0,29.94,East,79,0.0,3.0,96,0.00,,,0.00,weatherlink.com 1.10,2013-08-08 05:23:00,
2013-08-08 01:38:00,76.9,76.0,29.93,ESE,107,1.0,6.0,96,0.00,,,0.00,weatherlink.com 1.10,2013-08-08 05:38:00,
2013-08-08 01:53:00,76.9,76.0,29.93,ESE,102,2.0,4.0,96,0.00,,,0.00,weatherlink.com 1.10,2013-08-08 05:53:00,
2013-08-08 02:08:00,77.0,76.0,29.93,ESE,121,1.0,3.0,96,0.00,,,0.00,weatherlink.com 1.10,2013-08-08 06:08:00,
2013-08-08 02:23:00,77.0,76.0,29.93,East,83,1.0,3.0,96,0.00,,,0.00,weatherlink.com 1.10,2013-08-08 06:23:00,
2013-08-08 02:38:00,77.0,76.0,29.93,East,88,2.0,5.0,96,0.00,,,0.00,weatherlink.com 1.10,2013-08-08 06:38:00,
2013-08-08 02:53:00,77.1,76.0,29.92,ESE,109,1.0,7.0,96,0.00,,,0.00,weatherlink.com 1.10,2013-08-08 06:53:00,
2013-08-08 03:08:00,77.2,76.0,29.92,ESE,114,2.0,4.0,96,0.00,,,0.00,weatherlink.com 1.10,2013-08-08 07:08:00,
2013-08-08 03:23:00,77.7,76.0,29.92,ESE,112,3.0,7.0,95,0.00,,,0.00,weatherlink.com 1.10,2013-08-08 07:23:00,
2013-08-08 03:39:00,78.0,76.0,29.92,East,97,3.0,7.0,94,0.00,,,0.00,weatherlink.com 1.10,2013-08-08 07:39:00,
2013-08-08 03:54:00,78.2,76.0,29.91,East,88,3.0,9.0,94,0.00,,,0.00,weatherlink.com 1.10,2013-08-08 07:54:00,
2013-08-08 04:09:00,78.4,77.0,29.91,ESE,113,2.0,6.0,94,0.00,,,0.00,weatherlink.com 1.10,2013-08-08 08:09:00,
2013-08-08 04:24:00,78.5,77.0,29.91,ENE,77,0.0,7.0,94,0.00,,,0.00,weatherlink.com 1.10,2013-08-08 08:24:00,
2013-08-08 04:39:00,78.5,76.0,29.91,ENE,66,4.0,10.0,93,0.00,,,0.00,weatherlink.com 1.10,2013-08-08 08:39:00,
2013-08-08 04:54:00,78.5,76.0,29.92,East,80,3.0,5.0,93,0.00,,,0.00,weatherlink.com 1.10,2013-08-08 08:54:00,
2013-08-08 05:09:00,78.6,77.0,29.93,East,83,1.0,8.0,93,0.00,,,0.00,weatherlink.com 1.10,2013-08-08 09:09:00,
2013-08-08 05:24:00,78.6,76.0,29.92,ESE,112,2.0,6.0,92,0.00,,,0.00,weatherlink.com 1.10,2013-08-08 09:24:00,
2013-08-08 05:39:00,78.6,76.0,29.92,SE,132,6.0,7.0,92,0.00,,,0.00,weatherlink.com 1.10,2013-08-08 09:39:00,
2013-08-08 05:54:00,78.6,76.0,29.92,SE,135,5.0,11.0,92,0.00,,,0.00,weatherlink.com 1.10,2013-08-08 09:54:00,
2013-08-08 06:09:00,78.6,76.0,29.92,SE,130,6.0,8.0,92,0.00,,,0.00,weatherlink.com 1.10,2013-08-08 10:09:00,
2013-08-08 06:24:00,78.8,76.0,29.93,East,89,1.0,8.0,92,0.00,,,0.00,weatherlink.com 1.10,2013-08-08 10:24:00,
2013-08-08 06:39:00,78.7,77.0,29.93,ESE,113,5.0,7.0,93,0.00,,,0.00,weatherlink.com 1.10,2013-08-08 10:39:00,
2013-08-08 06:54:00,78.7,77.0,29.93,ESE,115,0.0,8.0,93,0.00,,,0.00,weatherlink.com 1.10,2013-08-08 10:54:00,
2013-08-08 07:09:00,78.7,77.0,29.93,East,92,1.0,8.0,93,0.00,,,0.00,weatherlink.com 1.10,2013-08-08 11:09:00,
2013-08-08 07:24:00,78.7,77.0,29.93,East,86,5.0,8.0,93,0.00,,,0.00,weatherlink.com 1.10,2013-08-08 11:24:00,
2013-08-08 07:39:00,79.0,77.0,29.93,SE,138,3.0,7.0,92,0.00,,,0.00,weatherlink.com 1.10,2013-08-08 11:39:00,
2013-08-08 07:54:00,79.3,77.0,29.93,SE,134,4.0,10.0,91,0.00,,,0.00,weatherlink.com 1.10,2013-08-08 11:54:00,
2013-08-08 08:09:00,80.0,77.0,29.94,ESE,108,1.0,10.0,90,0.00,,,0.00,weatherlink.com 1.10,2013-08-08 12:09:00,
2013-08-08 08:24:00,80.7,77.0,29.94,SE,140,4.0,10.0,89,0.00,,,0.00,weatherlink.com 1.10,2013-08-08 12:24:00,
2013-08-08 08:39:00,81.3,78.0,29.94,SE,142,1.0,8.0,88,0.00,,,0.00,weatherlink.com 1.10,2013-08-08 12:39:00,
2013-08-08 08:54:00,81.9,77.0,29.95,SE,132,3.0,12.0,86,0.00,,,0.00,weatherlink.com 1.10,2013-08-08 12:54:00,
2013-08-08 09:09:00,82.3,78.0,29.95,SE,128,7.0,12.0,86,0.00,,,0.00,weatherlink.com 1.10,2013-08-08 13:09:00,
2013-08-08 09:24:00,82.9,78.0,29.96,East,83,7.0,9.0,85,0.00,,,0.00,weatherlink.com 1.10,2013-08-08 13:24:00,
2013-08-08 09:39:00,83.9,78.0,29.96,East,96,1.0,9.0,83,0.00,,,0.00,weatherlink.com 1.10,2013-08-08 13:39:00,
2013-08-08 09:54:00,84.1,79.0,29.96,SE,124,1.0,9.0,83,0.00,,,0.00,weatherlink.com 1.10,2013-08-08 13:54:00,
2013-08-08 10:09:00,85.5,79.0,29.97,SE,140,2.0,7.0,81,0.00,,,0.00,weatherlink.com 1.10,2013-08-08 14:09:00,
2013-08-08 10:24:00,85.6,79.0,29.97,SE,142,6.0,11.0,80,0.00,,,0.00,weatherlink.com 1.10,2013-08-08 14:24:00,
2013-08-08 10:39:00,86.5,79.0,29.98,SSE,161,5.0,9.0,77,0.00,,,0.00,weatherlink.com 1.10,2013-08-08 14:39:00,
2013-08-08 10:54:00,87.2,79.0,29.98,ENE,61,7.0,11.0,77,0.00,,,0.00,weatherlink.com 1.10,2013-08-08 14:54:00,
2013-08-08 11:09:00,87.0,78.0,29.98,ENE,76,5.0,11.0,75,0.00,,,0.00,weatherlink.com 1.10,2013-08-08 15:09:00,
2013-08-08 11:24:00,87.9,79.0,29.98,ESE,104,5.0,12.0,75,0.00,,,0.00,weatherlink.com 1.10,2013-08-08 15:24:00,
2013-08-08 11:39:00,88.5,79.0,29.98,SSE,167,2.0,9.0,73,0.00,,,0.00,weatherlink.com 1.10,2013-08-08 15:39:00,
2013-08-08 11:55:00,88.7,77.0,29.98,SE,136,4.0,11.0,69,0.00,,,0.00,weatherlink.com 1.10,2013-08-08 15:55:00,
2013-08-08 12:10:00,89.5,79.0,29.98,SE,131,4.0,11.0,71,0.00,,,0.00,weatherlink.com 1.10,2013-08-08 16:10:00,
2013-08-08 12:25:00,89.7,78.0,29.98,East,82,5.0,13.0,68,0.00,,,0.00,weatherlink.com 1.10,2013-08-08 16:25:00,
2013-08-08 12:55:00,90.9,77.0,29.98,South,182,7.0,11.0,63,0.00,,,0.00,weatherlink.com 1.10,2013-08-08 16:55:00,
2013-08-08 13:10:00,91.2,77.0,29.98,ESE,113,2.0,9.0,63,0.00,,,0.00,weatherlink.com 1.10,2013-08-08 17:10:00,
2013-08-08 13:25:00,91.3,76.0,29.98,East,82,6.0,11.0,62,0.00,,,0.00,weatherlink.com 1.10,2013-08-08 17:25:00,
2013-08-08 13:40:00,91.3,77.0,29.97,SE,142,3.0,10.0,63,0.00,,,0.00,weatherlink.com 1.10,2013-08-08 17:40:00,
2013-08-08 13:55:00,92.6,77.0,29.97,SE,136,3.0,9.0,61,0.00,,,0.00,weatherlink.com 1.10,2013-08-08 17:55:00,
2013-08-08 14:10:00,91.7,76.0,29.96,ESE,120,8.0,11.0,61,0.00,,,0.00,weatherlink.com 1.10,2013-08-08 18:10:00,
2013-08-08 14:25:00,92.6,76.0,29.96,ESE,115,7.0,10.0,58,0.00,,,0.00,weatherlink.com 1.10,2013-08-08 18:25:00,
2013-08-08 14:40:00,92.0,75.0,29.96,ENE,63,3.0,10.0,58,0.00,,,0.00,weatherlink.com 1.10,2013-08-08 18:40:00,
2013-08-08 14:55:00,92.5,76.0,29.95,SSE,158,3.0,10.0,59,0.00,,,0.00,weatherlink.com 1.10,2013-08-08 18:55:00,
2013-08-08 15:10:00,92.4,75.0,29.95,East,93,2.0,8.0,58,0.00,,,0.00,weatherlink.com 1.10,2013-08-08 19:10:00,
2013-08-08 15:25:00,93.1,76.0,29.94,South,171,3.0,10.0,57,0.00,,,0.00,weatherlink.com 1.10,2013-08-08 19:25:00,
2013-08-08 15:40:00,93.8,75.0,29.94,ENE,57,2.0,12.0,55,0.00,,,0.00,weatherlink.com 1.10,2013-08-08 19:40:00,
2013-08-08 15:55:00,93.3,75.0,29.94,ESE,113,2.0,8.0,55,0.00,,,0.00,weatherlink.com 1.10,2013-08-08 19:55:00,
2013-08-08 16:10:00,93.7,76.0,29.93,SE,145,0.0,9.0,57,0.00,,,0.00,weatherlink.com 1.10,2013-08-08 20:10:00,
2013-08-08 16:25:00,91.7,78.0,29.93,SW,223,4.0,7.0,65,0.00,,,0.00,weatherlink.com 1.10,2013-08-08 20:25:00,
2013-08-08 16:40:00,90.8,79.0,29.93,WNW,300,3.0,10.0,68,0.00,,,0.00,weatherlink.com 1.10,2013-08-08 20:40:00,
2013-08-08 16:55:00,88.8,78.0,29.93,WNW,294,8.0,8.0,70,0.00,,,0.00,weatherlink.com 1.10,2013-08-08 20:55:00,
2013-08-08 17:25:00,91.0,78.0,29.92,NW,305,4.0,10.0,66,0.00,,,0.00,weatherlink.com 1.10,2013-08-08 21:25:00,
2013-08-08 17:40:00,88.4,78.0,29.92,WNW,286,4.0,8.0,70,0.00,,,0.00,weatherlink.com 1.10,2013-08-08 21:40:00,
2013-08-08 17:55:00,86.9,77.0,29.95,SSW,212,1.0,8.0,73,0.00,,,0.00,weatherlink.com 1.10,2013-08-08 21:55:00,
2013-08-08 18:10:00,80.4,76.0,29.94,West,278,7.0,10.0,85,0.01,,,0.01,weatherlink.com 1.10,2013-08-08 22:10:00,
2013-08-08 18:25:00,77.7,73.0,29.95,WNW,301,0.0,13.0,86,0.01,,,0.01,weatherlink.com 1.10,2013-08-08 22:25:00,
2013-08-08 18:40:00,77.8,73.0,29.95,West,266,5.0,9.0,85,0.01,,,0.01,weatherlink.com 1.10,2013-08-08 22:40:00,
2013-08-08 18:55:00,77.8,73.0,29.95,SW,227,1.0,4.0,86,0.01,,,0.01,weatherlink.com 1.10,2013-08-08 22:55:00,
2013-08-08 19:10:00,77.5,73.0,29.96,WSW,242,3.0,4.0,87,0.00,,,0.01,weatherlink.com 1.10,2013-08-08 23:10:00,
2013-08-08 19:25:00,77.7,74.0,29.98,WSW,249,3.0,4.0,87,0.00,,,0.01,weatherlink.com 1.10,2013-08-08 23:25:00,
2013-08-08 19:40:00,77.2,74.0,29.98,ESE,115,0.0,15.0,88,0.00,,,0.01,weatherlink.com 1.10,2013-08-08 23:40:00,
2013-08-08 19:55:00,76.0,72.0,29.98,SW,224,1.0,10.0,88,0.00,,,0.01,weatherlink.com 1.10,2013-08-08 23:55:00,
2013-08-08 20:10:00,75.8,72.0,29.97,WSW,257,0.0,3.0,88,0.00,,,0.01,weatherlink.com 1.10,2013-08-09 00:10:00,
2013-08-08 20:25:00,75.7,72.0,29.96,NE,41,0.0,1.0,89,0.00,,,0.01,weatherlink.com 1.10,2013-08-09 00:25:00,
2013-08-08 20:40:00,75.6,72.0,29.96,SE,138,3.0,3.0,89,0.00,,,0.01,weatherlink.com 1.10,2013-08-09 00:40:00,
2013-08-08 20:55:00,75.7,72.0,29.97,ESE,104,1.0,6.0,88,0.00,,,0.01,weatherlink.com 1.10,2013-08-09 00:55:00,
2013-08-08 21:25:00,76.6,74.0,29.97,ENE,65,0.0,2.0,92,0.00,,,0.01,weatherlink.com 1.10,2013-08-09 01:25:00,
2013-08-08 21:40:00,77.0,75.0,29.99,ENE,77,2.0,3.0,92,0.00,,,0.01,weatherlink.com 1.10,2013-08-09 01:40:00,
2013-08-08 21:55:00,77.5,74.0,30.00,SE,135,1.0,5.0,90,0.00,,,0.01,weatherlink.com 1.10,2013-08-09 01:55:00,
2013-08-08 22:10:00,77.9,75.0,29.99,ENE,72,1.0,5.0,89,0.00,,,0.01,weatherlink.com 1.10,2013-08-09 02:10:00,
2013-08-08 22:25:00,78.2,74.0,30.00,ENE,62,1.0,4.0,87,0.00,,,0.01,weatherlink.com 1.10,2013-08-09 02:25:00,
2013-08-08 22:55:00,78.7,74.0,30.01,ESE,113,0.0,3.0,86,0.00,,,0.01,weatherlink.com 1.10,2013-08-09 02:55:00,
2013-08-08 23:10:00,78.7,75.0,30.01,East,98,0.0,3.0,87,0.00,,,0.01,weatherlink.com 1.10,2013-08-09 03:10:00,
2013-08-08 23:41:00,78.5,74.0,30.01,ENE,68,1.0,3.0,87,0.00,,,0.01,weatherlink.com 1.10,2013-08-09 03:41:00,